createdAt,value
2023-02-26T00:02:04.410Z,2.75
2023-02-26T00:04:34.909Z,2.83
2023-02-26T00:07:06.376Z,2.70
2023-02-26T00:09:36.837Z,5.25
2023-02-26T00:12:07.633Z,5.12
2023-02-26T00:14:38.296Z,8.35
2023-02-26T00:17:20.958Z,5.20
2023-02-26T00:19:51.654Z,4.33
2023-02-26T00:22:22.845Z,3.47
2023-02-26T00:24:53.560Z,3.30
2023-02-26T00:27:24.109Z,2.42
2023-02-26T00:29:56.414Z,6.17
2023-02-26T00:32:27.156Z,3.77
2023-02-26T00:34:59.389Z,3.35
2023-02-26T00:37:41.972Z,2.62
2023-02-26T00:40:21.381Z,1.72
2023-02-26T00:42:52.209Z,1.62
2023-02-26T00:45:23.144Z,2.62
2023-02-26T00:47:59.508Z,1.60
2023-02-26T00:50:32.164Z,1.62
2023-02-26T00:53:11.615Z,1.70
2023-02-26T00:55:43.328Z,1.60
2023-02-26T00:58:13.911Z,1.50
2023-02-26T01:00:44.408Z,1.60
2023-02-26T01:03:15.066Z,1.60
2023-02-26T01:05:46.225Z,1.72
2023-02-26T01:08:22.835Z,1.70
2023-02-26T01:10:53.832Z,1.60
2023-02-26T01:13:24.729Z,1.80
2023-02-26T01:15:59.371Z,1.57
2023-02-26T01:18:41.584Z,1.30
2023-02-26T01:21:15.023Z,1.27
2023-02-26T01:23:48.357Z,1.57
2023-02-26T01:26:28.084Z,2.15
2023-02-26T01:28:58.952Z,2.83
2023-02-26T01:31:41.537Z,1.80
2023-02-26T01:34:31.647Z,1.55
2023-02-26T01:37:08.029Z,1.70
2023-02-26T01:39:58.898Z,1.50
2023-02-26T01:42:33.504Z,2.47
2023-02-26T01:45:06.916Z,3.05
2023-02-26T01:47:42.988Z,1.92
2023-02-26T01:50:19.462Z,1.90
2023-02-26T01:52:52.831Z,1.57
2023-02-26T01:55:26.543Z,1.30
2023-02-26T01:58:00.205Z,1.75
2023-02-26T02:00:32.550Z,2.30
2023-02-26T02:03:03.665Z,5.45
2023-02-26T02:05:53.841Z,4.80
2023-02-26T02:08:24.943Z,6.15
2023-02-26T02:10:56.112Z,3.42
2023-02-26T02:13:46.020Z,5.78
2023-02-26T02:16:37.543Z,4.65
2023-02-26T02:19:20.022Z,2.30
2023-02-26T02:21:57.339Z,4.78
2023-02-26T02:24:59.549Z,3.60
2023-02-26T02:27:49.276Z,2.30
2023-02-26T02:30:25.765Z,3.37
2023-02-26T02:33:02.135Z,5.10
2023-02-26T02:35:41.826Z,6.40
2023-02-26T02:38:24.548Z,4.75
2023-02-26T02:40:57.979Z,6.97
2023-02-26T02:43:31.351Z,8.48
2023-02-26T02:46:10.674Z,4.70
2023-02-26T02:48:46.502Z,1.95
2023-02-26T02:51:21.492Z,1.77
2023-02-26T02:54:09.817Z,1.40
2023-02-26T02:57:01.335Z,1.75
2023-02-26T02:59:34.678Z,1.50
2023-02-26T03:02:18.609Z,1.17
2023-02-26T03:04:49.892Z,1.20
2023-02-26T03:07:20.649Z,0.90
2023-02-26T03:09:52.555Z,1.05
2023-02-26T03:12:23.173Z,1.00
2023-02-26T03:14:53.907Z,1.07
2023-02-26T03:17:45.121Z,1.10
2023-02-26T03:20:18.503Z,0.80
2023-02-26T03:23:11.537Z,1.25
2023-02-26T03:26:00.097Z,1.30
2023-02-26T03:29:02.389Z,1.30
2023-02-26T03:31:38.478Z,1.00
2023-02-26T03:34:11.933Z,4.25
2023-02-26T03:36:48.780Z,1.50
2023-02-26T03:39:24.847Z,1.92
2023-02-26T03:42:16.163Z,1.40
2023-02-26T03:44:49.521Z,1.20
2023-02-26T03:47:20.405Z,0.90
2023-02-26T03:49:56.336Z,1.20
2023-02-26T03:52:30.004Z,1.57
2023-02-26T03:55:04.757Z,1.20
2023-02-26T03:57:35.669Z,1.17
2023-02-26T04:00:07.952Z,1.32
2023-02-26T04:02:46.936Z,1.55
2023-02-26T04:05:20.770Z,1.67
2023-02-26T04:07:51.543Z,1.50
2023-02-26T04:10:24.880Z,2.27
2023-02-26T04:12:56.163Z,1.67
2023-02-26T04:15:26.648Z,2.00
2023-02-26T04:17:57.173Z,1.20
2023-02-26T04:20:27.619Z,1.70
2023-02-26T04:22:58.125Z,3.25
2023-02-26T04:25:28.616Z,3.67
2023-02-26T04:27:59.169Z,3.17
2023-02-26T04:30:30.875Z,3.05
2023-02-26T04:33:01.377Z,1.70
2023-02-26T04:35:31.823Z,2.05
2023-02-26T04:38:02.261Z,1.92
2023-02-26T04:40:32.847Z,1.30
2023-02-26T04:43:03.375Z,1.00
2023-02-26T04:45:33.842Z,1.17
2023-02-26T04:48:05.389Z,1.45
2023-02-26T04:50:35.872Z,1.95
2023-02-26T04:53:06.340Z,1.45
2023-02-26T04:55:39.187Z,1.27
2023-02-26T04:58:10.030Z,1.30
2023-02-26T05:00:40.476Z,1.07
2023-02-26T05:03:11.238Z,1.20
2023-02-26T05:05:41.734Z,0.90
2023-02-26T05:08:13.400Z,1.05
2023-02-26T05:10:43.881Z,0.93
2023-02-26T05:13:14.432Z,0.90
2023-02-26T05:15:44.981Z,1.10
2023-02-26T05:18:15.585Z,1.10
2023-02-26T05:20:46.119Z,1.20
2023-02-26T05:23:16.602Z,1.45
2023-02-26T05:25:48.703Z,1.02
2023-02-26T05:28:19.328Z,1.07
2023-02-26T05:30:49.828Z,1.10
2023-02-26T05:33:20.608Z,1.10
2023-02-26T05:35:51.190Z,3.08
2023-02-26T05:38:21.600Z,1.60
2023-02-26T05:40:52.051Z,2.77
2023-02-26T05:43:22.778Z,2.05
2023-02-26T05:45:54.560Z,1.22
2023-02-26T05:48:26.143Z,1.10
2023-02-26T05:50:56.632Z,1.25
2023-02-26T05:53:27.071Z,1.32
2023-02-26T05:55:57.639Z,1.00
2023-02-26T05:58:28.115Z,1.67
2023-02-26T06:01:00.468Z,3.25
2023-02-26T06:03:30.896Z,2.47
2023-02-26T06:06:01.386Z,2.50
2023-02-26T06:08:33.141Z,5.35
2023-02-26T06:11:04.912Z,5.05
2023-02-26T06:13:35.373Z,5.72
2023-02-26T06:16:06.250Z,5.33
2023-02-26T06:18:36.769Z,4.80
2023-02-26T06:21:09.604Z,7.12
2023-02-26T06:23:40.244Z,7.20
2023-02-26T06:26:11.018Z,6.50
2023-02-26T06:28:41.964Z,5.75
2023-02-26T06:31:12.930Z,4.33
2023-02-26T06:33:43.464Z,5.22
2023-02-26T06:36:14.339Z,6.67
2023-02-26T06:38:45.697Z,4.50
2023-02-26T06:41:16.167Z,3.22
2023-02-26T06:43:46.681Z,3.90
2023-02-26T06:46:17.326Z,2.65
2023-02-26T06:48:47.803Z,2.55
2023-02-26T06:51:18.277Z,2.17
2023-02-26T06:53:48.749Z,3.20
2023-02-26T06:56:19.231Z,2.67
2023-02-26T06:58:49.705Z,4.95
2023-02-26T07:01:20.675Z,5.05
2023-02-26T07:03:51.437Z,5.20
2023-02-26T07:06:27.674Z,5.85
2023-02-26T07:08:54.316Z,6.25
2023-02-26T07:11:26.198Z,4.92
2023-02-26T07:13:56.871Z,5.25
2023-02-26T07:16:29.061Z,4.05
2023-02-26T07:18:59.784Z,4.00
2023-02-26T07:21:30.405Z,4.10
2023-02-26T07:24:00.931Z,2.45
2023-02-26T07:26:31.385Z,2.27
2023-02-26T07:29:01.869Z,2.00
2023-02-26T07:31:32.525Z,2.42
2023-02-26T07:34:03.571Z,1.98
2023-02-26T07:36:34.431Z,2.22
2023-02-26T07:39:04.997Z,2.22
2023-02-26T07:41:36.595Z,2.45
2023-02-26T07:44:07.051Z,2.10
2023-02-26T07:46:37.551Z,1.70
2023-02-26T07:49:10.012Z,2.35
2023-02-26T07:51:41.207Z,3.30
2023-02-26T07:54:13.725Z,3.27
2023-02-26T07:56:45.545Z,2.62
2023-02-26T07:59:16.490Z,4.60
2023-02-26T08:01:47.160Z,5.45
2023-02-26T08:04:18.002Z,4.40
2023-02-26T08:06:56.180Z,4.90
2023-02-26T08:09:44.061Z,3.92
2023-02-26T08:12:14.623Z,4.22
2023-02-26T08:14:45.101Z,4.62
2023-02-26T08:17:15.981Z,4.80
2023-02-26T08:19:46.434Z,3.77
2023-02-26T08:22:18.171Z,4.10
2023-02-26T08:24:48.647Z,4.00
2023-02-26T08:27:19.215Z,3.87
2023-02-26T08:29:50.525Z,2.60
2023-02-26T08:32:23.254Z,4.95
2023-02-26T08:34:55.812Z,6.78
2023-02-26T08:37:26.411Z,5.65
2023-02-26T08:39:57.057Z,5.08
2023-02-26T08:42:27.618Z,5.05
2023-02-26T08:44:58.089Z,3.60
2023-02-26T08:47:29.307Z,3.80
2023-02-26T08:50:00.039Z,3.70
2023-02-26T08:52:30.646Z,2.87
2023-02-26T08:55:01.130Z,3.15
2023-02-26T08:57:31.625Z,3.90
2023-02-26T09:00:02.060Z,3.30
2023-02-26T09:02:32.618Z,3.70
2023-02-26T09:05:03.233Z,4.50
2023-02-26T09:07:34.011Z,7.10
2023-02-26T09:10:04.671Z,7.58
2023-02-26T09:12:37.260Z,6.70
2023-02-26T09:15:10.754Z,6.72
2023-02-26T09:17:41.593Z,7.78
2023-02-26T09:20:13.986Z,10.38
2023-02-26T09:22:45.756Z,7.78
2023-02-26T09:25:16.389Z,6.30
2023-02-26T09:27:48.190Z,4.40
2023-02-26T09:30:18.756Z,4.08
2023-02-26T09:32:49.346Z,3.58
2023-02-26T09:35:19.830Z,2.83
2023-02-26T09:37:51.649Z,2.52
2023-02-26T09:40:49.155Z,3.30
2023-02-26T09:43:26.921Z,2.17
2023-02-26T09:46:00.371Z,2.95
2023-02-26T09:48:33.807Z,2.22
2023-02-26T09:51:05.085Z,2.60
2023-02-26T09:53:38.918Z,2.45
2023-02-26T09:56:21.292Z,2.30
2023-02-26T09:58:55.446Z,2.35
2023-02-26T10:01:34.878Z,2.00
2023-02-26T10:04:34.270Z,1.90
2023-02-26T10:07:19.653Z,2.10
2023-02-26T10:10:20.689Z,2.52
2023-02-26T10:12:53.742Z,2.05
2023-02-26T10:15:29.965Z,2.08
2023-02-26T10:18:21.555Z,2.30
2023-02-26T10:21:01.326Z,1.90
2023-02-26T10:23:43.353Z,2.70
2023-02-26T10:26:21.492Z,2.85
2023-02-26T10:28:57.485Z,2.22
2023-02-26T10:31:45.899Z,2.35
2023-02-26T10:34:40.423Z,2.17
2023-02-26T10:37:19.944Z,2.30
2023-02-26T10:40:19.335Z,2.22
2023-02-26T10:42:55.387Z,2.00
2023-02-26T10:46:03.641Z,1.92
2023-02-26T10:48:47.646Z,1.80
2023-02-26T10:51:24.567Z,1.98
2023-02-26T10:53:58.352Z,2.17
2023-02-26T10:56:34.058Z,2.08
2023-02-26T10:59:04.876Z,1.92
2023-02-26T11:01:35.492Z,2.00
2023-02-26T11:04:11.771Z,1.82
2023-02-26T11:07:00.644Z,1.90
2023-02-26T11:09:42.320Z,1.80
2023-02-26T11:12:21.250Z,2.15
2023-02-26T11:14:52.370Z,1.70
2023-02-26T11:17:28.345Z,1.37
2023-02-26T11:20:05.497Z,1.50
2023-02-26T11:22:37.445Z,2.22
2023-02-26T11:25:11.271Z,1.95
2023-02-26T11:27:46.010Z,1.75
2023-02-26T11:30:19.281Z,1.95
2023-02-26T11:32:54.591Z,1.80
2023-02-26T11:38:00.292Z,2.40
2023-02-26T11:40:42.641Z,1.70
2023-02-26T11:43:16.017Z,1.35
2023-02-26T11:45:55.794Z,1.55
2023-02-26T11:48:29.641Z,1.95
2023-02-26T11:51:02.389Z,1.90
2023-02-26T11:53:35.793Z,1.52
2023-02-26T11:56:09.269Z,1.60
2023-02-26T11:58:41.629Z,1.67
2023-02-26T12:01:14.172Z,2.55
2023-02-26T12:03:47.699Z,2.10
2023-02-26T12:06:24.902Z,1.42
2023-02-26T12:08:55.660Z,1.47
2023-02-26T12:11:55.622Z,1.82
2023-02-26T12:14:29.001Z,1.62
2023-02-26T12:17:20.602Z,1.55
2023-02-26T12:20:04.687Z,1.50
2023-02-26T12:22:55.621Z,1.72
2023-02-26T12:25:48.783Z,1.70
2023-02-26T12:28:58.675Z,1.40
2023-02-26T12:31:54.852Z,1.70
2023-02-26T12:37:31.807Z,1.70
2023-02-26T12:40:17.523Z,1.62
2023-02-26T12:42:59.652Z,1.60
2023-02-26T12:46:02.759Z,2.67
2023-02-26T12:49:07.227Z,2.40
2023-02-26T12:51:40.595Z,2.42
2023-02-26T12:54:44.620Z,1.90
2023-02-26T12:57:36.018Z,1.32
2023-02-26T13:00:18.405Z,1.30
2023-02-26T13:02:54.868Z,3.37
2023-02-26T13:05:35.503Z,1.92
2023-02-26T13:08:11.837Z,1.80
2023-02-26T13:11:19.111Z,1.85
2023-02-26T13:13:58.394Z,1.57
2023-02-26T13:16:52.921Z,1.50
2023-02-26T13:19:38.539Z,1.10
2023-02-26T13:22:17.564Z,1.20
2023-02-26T13:25:06.930Z,1.55
2023-02-26T13:27:39.848Z,1.70
2023-02-26T13:30:25.173Z,1.70
2023-02-26T13:32:58.746Z,1.75
2023-02-26T13:35:35.202Z,1.10
2023-02-26T13:38:08.681Z,1.12
2023-02-26T13:40:54.084Z,1.70
2023-02-26T13:43:33.208Z,1.60
2023-02-26T13:46:41.182Z,1.40
2023-02-26T13:49:29.856Z,1.40
2023-02-26T13:52:00.329Z,1.82
2023-02-26T13:54:36.472Z,1.55
2023-02-26T13:57:37.235Z,1.55
2023-02-26T14:00:36.210Z,1.55
2023-02-26T14:03:19.936Z,1.70
2023-02-26T14:05:56.808Z,1.45
2023-02-26T14:08:41.583Z,5.20
2023-02-26T14:11:40.772Z,2.55
2023-02-26T14:14:25.753Z,5.42
2023-02-26T14:16:59.280Z,5.25
2023-02-26T14:19:41.564Z,7.75
2023-02-26T14:22:26.100Z,8.90
2023-02-26T14:25:15.472Z,10.23
2023-02-26T14:27:48.042Z,7.83
2023-02-26T14:30:30.521Z,6.28
2023-02-26T14:33:07.526Z,7.42
2023-02-26T14:35:46.992Z,8.48
2023-02-26T14:38:36.187Z,9.65
2023-02-26T14:41:14.499Z,5.53
2023-02-26T14:43:48.132Z,6.25
2023-02-26T14:46:21.032Z,8.73
2023-02-26T14:48:52.643Z,10.10
2023-02-26T14:51:32.217Z,8.78
2023-02-26T14:54:08.943Z,5.25
2023-02-26T14:56:54.934Z,5.08
2023-02-26T14:59:42.592Z,3.00
2023-02-26T15:02:35.896Z,3.30
2023-02-26T15:05:24.647Z,3.15
2023-02-26T15:08:17.602Z,2.90
2023-02-26T15:11:12.183Z,2.40
2023-02-26T15:13:51.176Z,2.60
2023-02-26T15:16:31.416Z,2.10
2023-02-26T15:19:07.799Z,2.10
2023-02-26T15:21:50.415Z,2.50
2023-02-26T15:24:21.646Z,2.20
2023-02-26T15:26:58.157Z,8.40
2023-02-26T15:32:04.263Z,9.35
2023-02-26T15:34:34.901Z,8.55
2023-02-26T15:37:05.491Z,10.15
2023-02-26T15:39:36.082Z,6.80
2023-02-26T15:42:08.181Z,7.70
2023-02-26T15:44:47.965Z,8.43
2023-02-26T15:47:11.873Z,7.17
2023-02-26T15:49:45.375Z,7.17
2023-02-26T15:52:20.024Z,7.65
2023-02-26T15:54:53.528Z,8.60
2023-02-26T15:57:27.046Z,6.35
2023-02-26T16:00:04.654Z,5.75
2023-02-26T16:02:35.214Z,4.47
2023-02-26T16:05:06.454Z,4.35
2023-02-26T16:07:37.050Z,10.10
2023-02-26T16:10:10.606Z,8.38
2023-02-26T16:12:44.086Z,8.35
2023-02-26T16:15:17.560Z,9.23
2023-02-26T16:17:51.346Z,7.92
2023-02-26T16:20:27.920Z,9.63
2023-02-26T16:23:07.122Z,9.55
2023-02-26T16:25:44.235Z,9.10
2023-02-26T16:28:17.860Z,9.25
2023-02-26T16:30:54.138Z,5.95
2023-02-26T16:33:28.008Z,8.40
2023-02-26T16:36:07.841Z,4.53
2023-02-26T16:38:50.182Z,2.50
2023-02-26T16:41:23.894Z,2.40
2023-02-26T16:44:00.255Z,2.20
2023-02-26T16:46:46.209Z,2.00
2023-02-26T16:49:25.559Z,1.98
2023-02-26T16:51:58.715Z,2.08
2023-02-26T16:54:36.026Z,2.10
2023-02-26T16:57:09.400Z,2.00
2023-02-26T16:59:43.411Z,1.90
2023-02-26T17:02:19.776Z,1.70
2023-02-26T17:04:53.547Z,1.42
2023-02-26T17:07:33.741Z,1.32
2023-02-26T17:10:20.871Z,1.25
2023-02-26T17:12:54.409Z,1.40
2023-02-26T17:15:33.771Z,1.20
2023-02-26T17:18:04.661Z,1.40
2023-02-26T17:20:36.261Z,1.70
2023-02-26T17:23:09.473Z,1.45
2023-02-26T17:25:45.539Z,2.10
2023-02-26T17:28:20.517Z,3.87
2023-02-26T17:30:51.109Z,4.00
2023-02-26T17:33:22.431Z,3.33
2023-02-26T17:35:55.469Z,3.37
2023-02-26T17:38:25.917Z,3.00
2023-02-26T17:40:58.076Z,2.50
2023-02-26T17:43:29.136Z,2.50
2023-02-26T17:46:00.274Z,2.10
2023-02-26T17:48:31.946Z,2.05
2023-02-26T17:51:02.460Z,1.90
2023-02-26T17:53:34.504Z,2.17
2023-02-26T17:56:07.405Z,2.40
2023-02-26T17:58:37.878Z,3.00
2023-02-26T18:01:10.912Z,3.47
2023-02-26T18:03:41.778Z,5.45
2023-02-26T18:06:15.871Z,5.20
2023-02-26T18:08:48.177Z,4.55
2023-02-26T18:11:20.555Z,4.35
2023-02-26T18:13:52.943Z,4.80
2023-02-26T18:16:42.953Z,4.45
2023-02-26T18:19:15.616Z,4.55
2023-02-26T18:21:46.154Z,5.00
2023-02-26T18:24:16.722Z,4.70
2023-02-26T18:26:47.236Z,3.67
2023-02-26T18:29:17.688Z,3.90
2023-02-26T18:31:48.380Z,4.12
2023-02-26T18:34:19.004Z,5.35
2023-02-26T18:36:49.657Z,5.22
2023-02-26T18:39:21.869Z,5.33
2023-02-26T18:41:53.577Z,5.00
2023-02-26T18:44:24.116Z,4.60
2023-02-26T18:46:55.171Z,4.60
2023-02-26T18:49:25.671Z,4.62
2023-02-26T18:51:56.268Z,5.12
2023-02-26T18:54:27.962Z,5.50
2023-02-26T18:56:59.123Z,4.58
2023-02-26T18:59:31.308Z,3.98
2023-02-26T19:02:03.279Z,4.72
2023-02-26T19:04:35.766Z,4.12
2023-02-26T19:07:06.731Z,3.70
2023-02-26T19:09:37.470Z,3.85
2023-02-26T19:12:11.000Z,4.00
2023-02-26T19:14:42.511Z,4.10
2023-02-26T19:17:13.042Z,4.85
2023-02-26T19:19:44.735Z,4.40
2023-02-26T19:22:17.038Z,4.50
2023-02-26T19:24:47.875Z,4.62
2023-02-26T19:27:18.639Z,4.83
2023-02-26T19:29:49.436Z,4.83
2023-02-26T19:32:20.247Z,5.80
2023-02-26T19:34:50.977Z,5.50
2023-02-26T19:37:21.561Z,5.00
2023-02-26T19:39:52.293Z,5.22
2023-02-26T19:42:24.817Z,4.78
2023-02-26T19:44:55.599Z,5.50
2023-02-26T19:47:26.106Z,6.67
2023-02-26T19:49:56.727Z,6.95
2023-02-26T19:52:28.413Z,5.97
2023-02-26T19:55:00.529Z,5.50
2023-02-26T19:57:31.332Z,5.37
2023-02-26T20:00:03.469Z,4.65
2023-02-26T20:02:34.411Z,4.85
2023-02-26T20:05:05.890Z,5.50
2023-02-26T20:07:36.722Z,7.75
2023-02-26T20:10:08.436Z,7.83
2023-02-26T20:12:39.188Z,6.97
2023-02-26T20:15:10.571Z,6.47
2023-02-26T20:17:41.098Z,5.55
2023-02-26T20:20:12.805Z,5.37
2023-02-26T20:22:43.439Z,6.80
2023-02-26T20:25:15.752Z,5.85
2023-02-26T20:27:46.456Z,6.60
2023-02-26T20:30:17.713Z,6.15
2023-02-26T20:32:48.685Z,5.70
2023-02-26T20:35:19.703Z,5.22
2023-02-26T20:37:51.404Z,5.87
2023-02-26T20:40:22.186Z,5.22
2023-02-26T20:42:54.068Z,5.12
2023-02-26T20:45:25.829Z,6.70
2023-02-26T20:47:56.438Z,4.92
2023-02-26T20:50:26.939Z,6.22
2023-02-26T20:52:57.683Z,7.10
2023-02-26T20:55:28.505Z,8.60
2023-02-26T20:57:59.266Z,9.58
2023-02-26T21:00:30.487Z,7.42
2023-02-26T21:03:01.158Z,5.90
2023-02-26T21:05:31.734Z,6.00
2023-02-26T21:08:04.340Z,4.83
2023-02-26T21:10:35.019Z,5.25
2023-02-26T21:13:05.500Z,6.10
2023-02-26T21:15:36.473Z,5.62
2023-02-26T21:18:07.115Z,5.75
2023-02-26T21:20:37.747Z,5.30
2023-02-26T21:23:08.474Z,4.47
2023-02-26T21:25:40.178Z,5.28
2023-02-26T21:28:10.678Z,5.80
2023-02-26T21:30:41.285Z,4.50
2023-02-26T21:33:11.880Z,4.67
2023-02-26T21:35:43.448Z,3.95
2023-02-26T21:38:13.910Z,4.05
2023-02-26T21:40:44.407Z,4.08
2023-02-26T21:43:15.175Z,3.50
2023-02-26T21:45:49.526Z,3.83
2023-02-26T21:48:19.971Z,3.37
2023-02-26T21:50:52.206Z,3.92
2023-02-26T21:53:22.997Z,4.12
2023-02-26T21:55:53.479Z,3.42
2023-02-26T21:58:23.959Z,3.80
2023-02-26T22:00:54.620Z,3.52
2023-02-26T22:03:25.132Z,3.60
2023-02-26T22:05:55.710Z,3.95
2023-02-26T22:08:27.300Z,3.70
2023-02-26T22:10:58.820Z,3.47
2023-02-26T22:13:29.261Z,3.50
2023-02-26T22:15:59.747Z,3.95
2023-02-26T22:18:30.194Z,3.87
2023-02-26T22:21:01.818Z,3.77
2023-02-26T22:23:32.272Z,3.90
2023-02-26T22:26:02.757Z,3.60
2023-02-26T22:28:33.281Z,3.90
2023-02-26T22:31:04.970Z,3.90
2023-02-26T22:33:35.630Z,4.10
2023-02-26T22:36:06.465Z,4.20
2023-02-26T22:38:36.911Z,5.90
2023-02-26T22:41:07.589Z,3.60
2023-02-26T22:43:38.033Z,3.47
2023-02-26T22:46:08.573Z,3.72
2023-02-26T22:48:39.076Z,3.42
2023-02-26T22:51:09.565Z,3.98
2023-02-26T22:53:40.027Z,3.25
2023-02-26T22:56:11.135Z,3.10
2023-02-26T22:58:41.721Z,2.87
2023-02-26T23:01:12.331Z,3.42
2023-02-26T23:03:42.795Z,3.15
2023-02-26T23:06:15.472Z,3.02
2023-02-26T23:08:45.912Z,3.42
2023-02-26T23:11:16.328Z,3.27
2023-02-26T23:13:46.791Z,3.60
2023-02-26T23:16:17.355Z,3.87
2023-02-26T23:18:48.284Z,3.45
2023-02-26T23:21:18.755Z,3.55
2023-02-26T23:23:49.411Z,2.70
2023-02-26T23:26:19.830Z,2.87
2023-02-26T23:28:51.556Z,2.40
2023-02-26T23:31:22.239Z,3.12
2023-02-26T23:33:52.734Z,3.20
2023-02-26T23:36:23.190Z,3.62
2023-02-26T23:38:53.747Z,3.30
2023-02-26T23:41:24.536Z,3.95
2023-02-26T23:43:55.240Z,3.62
2023-02-26T23:46:25.765Z,3.67
2023-02-26T23:48:57.558Z,3.72
2023-02-26T23:51:29.224Z,3.40
2023-02-26T23:53:59.664Z,4.12
2023-02-26T23:56:30.095Z,3.67
2023-02-26T23:59:00.582Z,3.45
